Аэропорт: Домодедово. Москва

ICAO: UUDD

METAR:
2021-04-21 21:00:00
UUDD 212100Z 21003MPS 180V240 CAVOK 05/01 Q1011 R88/CLRD60 NOSIG
METAR:
2021-04-21 19:57:00
TAF UUDD 211957Z 2121/2303 20003G09MPS 8000 FEW007 BKN016 TX15/2211Z TN02/2203Z TEMPO 2122/2206 -SHRA SCT004 BKN012CB TEMPO 2209/2221 18008G14MPS -SHRA SCT012CB